createdAt,value
2023-03-29T00:04:54.611Z,3.74
2023-03-29T00:24:54.108Z,3.66
2023-03-29T00:44:54.153Z,3.71
2023-03-29T01:04:54.267Z,3.86
2023-03-29T01:24:54.250Z,3.86
2023-03-29T01:44:54.347Z,3.9
2023-03-29T02:04:54.356Z,3.76
2023-03-29T02:24:54.404Z,3.43
2023-03-29T02:44:54.470Z,3.38
2023-03-29T03:04:54.562Z,3.57
2023-03-29T03:24:54.501Z,3.49
2023-03-29T03:44:54.642Z,3.45
2023-03-29T04:04:54.647Z,3.46
2023-03-29T04:24:54.649Z,3.38
2023-03-29T04:44:54.787Z,3.4
2023-03-29T05:04:54.832Z,3.5
2023-03-29T05:24:54.776Z,3.53
2023-03-29T05:44:54.873Z,3.61
2023-03-29T06:04:54.944Z,3.68
2023-03-29T06:24:54.923Z,4.27
2023-03-29T06:44:54.985Z,4.56
2023-03-29T07:04:54.960Z,5.25
2023-03-29T07:24:55.047Z,5.89
2023-03-29T07:44:55.071Z,5.97
2023-03-29T08:04:55.192Z,6.32
2023-03-29T08:24:55.224Z,6.65
2023-03-29T08:44:55.238Z,7.76
2023-03-29T09:04:55.292Z,8.48
2023-03-29T09:24:55.317Z,9.51
2023-03-29T09:44:55.429Z,9.56
2023-03-29T10:04:55.431Z,11.25
2023-03-29T10:24:55.475Z,12.15
2023-03-29T10:44:55.412Z,12.08
2023-03-29T11:04:55.436Z,12.49
2023-03-29T11:24:55.555Z,13.41
2023-03-29T11:44:55.610Z,12.93
2023-03-29T12:04:55.581Z,12.62
2023-03-29T12:24:55.658Z,12.91
2023-03-29T12:44:55.670Z,12.79
2023-03-29T13:04:55.784Z,12.48
2023-03-29T13:24:55.730Z,12.8
2023-03-29T13:44:55.710Z,13.15
2023-03-29T14:04:55.768Z,13.72
2023-03-29T14:24:55.822Z,13.59
2023-03-29T14:44:55.879Z,14.04
2023-03-29T15:04:55.917Z,14.63
2023-03-29T15:24:55.962Z,13.81
2023-03-29T15:44:55.992Z,13.1
2023-03-29T16:04:56.046Z,13.01
2023-03-29T16:24:56.087Z,12.88
2023-03-29T16:44:56.029Z,12.73
2023-03-29T17:04:56.097Z,12.63
2023-03-29T17:24:56.111Z,12.39
2023-03-29T17:44:56.107Z,12.06
2023-03-29T18:04:56.128Z,11.71
2023-03-29T18:24:56.232Z,11.28
2023-03-29T18:44:56.336Z,10.92
2023-03-29T19:04:56.390Z,10.77
2023-03-29T19:24:56.330Z,10.46
2023-03-29T19:44:56.373Z,10.27
2023-03-29T20:04:56.378Z,10.34
2023-03-29T20:24:56.445Z,10
2023-03-29T21:04:56.511Z,9.73
2023-03-29T21:24:56.593Z,9.56
2023-03-29T21:44:56.614Z,9.49
2023-03-29T22:04:56.775Z,9.46
2023-03-29T22:24:56.688Z,9.31
2023-03-29T22:44:56.671Z,9.18
2023-03-29T23:04:56.766Z,8.99
2023-03-29T23:24:56.820Z,8.84
2023-03-29T23:44:56.820Z,8.8
